Preview of NWS' New Version of Forecast
This preview is not operational and should not be used for support decisions.

Terminal Aerodrome Forecast (TAF)

Issued by National Weather Service (NWS)

                            
695 
FTUS42 KKEY 250532
TAFMTH
TAF
KMTH 250532Z 2506/2606 12010G16KT P6SM SCT025
     FM251600 13008KT P6SM FEW020 SCT090=